createdAt,value
2019-02-19T00:01:09.593Z,97386.48
2019-02-19T00:03:48.299Z,97390.97
2019-02-19T00:06:26.629Z,97399.83
2019-02-19T00:09:08.620Z,97399.84
2019-02-19T00:11:40.443Z,97397.17
2019-02-19T00:14:21.762Z,97399.78
2019-02-19T00:16:56.204Z,97398.02
2019-02-19T00:19:33.078Z,97401.22
2019-02-19T00:22:04.795Z,97406.21
2019-02-19T00:24:43.968Z,97403.52
2019-02-19T00:27:22.605Z,97403.70
2019-02-19T00:29:55.074Z,97408.32
2019-02-19T00:32:27.005Z,97406.38
2019-02-19T00:35:00.357Z,97400.73
2019-02-19T00:37:31.827Z,97395.70
2019-02-19T00:40:06.756Z,97401.94
2019-02-19T00:42:42.672Z,97399.24
2019-02-19T00:45:16.939Z,97400.28
2019-02-19T00:47:51.416Z,97401.29
2019-02-19T00:50:28.507Z,97403.52
2019-02-19T00:53:00.522Z,97411.90
2019-02-19T00:56:07.798Z,97406.59
2019-02-19T00:58:39.966Z,97400.97
2019-02-19T01:01:11.461Z,97411.20
2019-02-19T01:03:48.331Z,97408.33
2019-02-19T01:06:28.180Z,97409.95
2019-02-19T01:09:07.939Z,97416.20
2019-02-19T01:11:40.074Z,97417.19
2019-02-19T01:14:15.081Z,97424.63
2019-02-19T01:16:46.339Z,97420.14
2019-02-19T01:19:19.680Z,97419.48
2019-02-19T01:21:57.024Z,97421.89
2019-02-19T01:24:35.408Z,97418.36
2019-02-19T01:27:30.331Z,97412.59
2019-02-19T01:29:57.971Z,97416.38
2019-02-19T01:32:29.310Z,97413.69
2019-02-19T01:35:04.953Z,97417.22
2019-02-19T01:37:43.113Z,97418.84
2019-02-19T01:40:19.986Z,97415.13
2019-02-19T01:42:51.495Z,97414.83
2019-02-19T01:45:34.289Z,97418.16
2019-02-19T01:51:55.925Z,97415.39
2019-02-19T01:54:29.618Z,97415.08
2019-02-19T01:57:01.549Z,97422.50
2019-02-19T01:59:33.061Z,97419.09
2019-02-19T02:02:04.007Z,97422.27
2019-02-19T02:04:39.443Z,97424.69
2019-02-19T02:07:35.469Z,97420.23
2019-02-19T02:10:09.812Z,97420.89
2019-02-19T02:12:44.738Z,97430.34
2019-02-19T02:15:15.569Z,97425.89
2019-02-19T02:17:49.781Z,97428.41
2019-02-19T02:20:28.909Z,97428.42
2019-02-19T02:23:05.683Z,97427.63
2019-02-19T02:25:43.880Z,97432.32
2019-02-19T02:28:17.406Z,97425.30
2019-02-19T02:31:04.010Z,97424.47
2019-02-19T02:33:44.255Z,97423.83
2019-02-19T02:36:22.808Z,97428.27
2019-02-19T02:38:59.885Z,97421.83
2019-02-19T02:42:28.945Z,97420.27
2019-02-19T02:45:13.460Z,97419.30
2019-02-19T02:47:48.410Z,97429.86
2019-02-19T02:50:20.425Z,97422.66
2019-02-19T02:53:20.228Z,97425.34
2019-02-19T02:55:56.034Z,97415.41
2019-02-19T02:58:32.265Z,97413.55
2019-02-19T03:01:18.518Z,97423.05
2019-02-19T03:03:50.944Z,97422.10
2019-02-19T03:06:52.370Z,97423.38
2019-02-19T03:09:23.111Z,97416.77
2019-02-19T03:11:54.563Z,97417.52
2019-02-19T03:14:26.603Z,97413.66
2019-02-19T03:16:57.929Z,97413.78
2019-02-19T03:19:53.365Z,97417.61
2019-02-19T03:22:26.479Z,97416.53
2019-02-19T03:24:57.915Z,97411.84
2019-02-19T03:27:28.637Z,97423.75
2019-02-19T03:29:59.366Z,97418.51
2019-02-19T03:32:30.795Z,97421.41
2019-02-19T03:35:01.890Z,97427.01
2019-02-19T03:37:53.895Z,97415.17
2019-02-19T03:40:24.616Z,97421.78
2019-02-19T03:42:55.816Z,97426.77
2019-02-19T03:45:26.509Z,97425.67
2019-02-19T03:47:58.475Z,97425.22
2019-02-19T03:50:29.247Z,97424.56
2019-02-19T03:53:03.340Z,97442.52
2019-02-19T03:55:34.871Z,97440.24
2019-02-19T03:58:05.221Z,97438.46
2019-02-19T04:00:36.551Z,97436.12
2019-02-19T04:03:08.219Z,97443.88
2019-02-19T04:05:56.434Z,97431.87
2019-02-19T04:08:27.861Z,97428.23
2019-02-19T04:10:59.457Z,97428.25
2019-02-19T04:13:30.928Z,97433.50
2019-02-19T04:16:02.270Z,97447.44
2019-02-19T04:18:44.155Z,97449.94
2019-02-19T04:21:15.150Z,97448.23
2019-02-19T04:23:46.907Z,97449.86
2019-02-19T04:26:18.499Z,97451.33
2019-02-19T04:28:53.400Z,97445.88
2019-02-19T04:31:24.659Z,97441.40
2019-02-19T04:33:55.985Z,97444.78
2019-02-19T04:36:27.691Z,97441.52
2019-02-19T04:38:58.675Z,97444.91
2019-02-19T04:41:29.363Z,97453.62
2019-02-19T04:44:01.068Z,97452.86
2019-02-19T04:46:34.326Z,97455.12
2019-02-19T04:49:05.588Z,97451.09
2019-02-19T04:51:47.577Z,97459.73
2019-02-19T04:54:19.082Z,97459.41
2019-02-19T04:56:50.169Z,97452.84
2019-02-19T04:59:22.143Z,97447.78
2019-02-19T05:01:53.193Z,97446.03
2019-02-19T05:04:25.088Z,97454.87
2019-02-19T05:06:56.448Z,97460.15
2019-02-19T05:09:27.750Z,97465.61
2019-02-19T05:11:59.064Z,97467.37
2019-02-19T05:14:30.100Z,97467.55
2019-02-19T05:17:01.711Z,97461.80
2019-02-19T05:19:33.029Z,97462.45
2019-02-19T05:22:04.033Z,97457.17
2019-02-19T05:24:34.758Z,97466.63
2019-02-19T05:27:05.052Z,97462.30
2019-02-19T05:29:36.398Z,97458.42
2019-02-19T05:32:08.393Z,97456.51
2019-02-19T05:34:39.849Z,97455.23
2019-02-19T05:37:11.188Z,97455.91
2019-02-19T05:39:42.544Z,97456.37
2019-02-19T05:42:14.312Z,97456.84
2019-02-19T05:44:46.394Z,97465.86
2019-02-19T05:47:17.138Z,97461.53
2019-02-19T05:49:48.149Z,97462.66
2019-02-19T05:52:19.538Z,97463.45
2019-02-19T05:54:51.643Z,97469.55
2019-02-19T05:58:19.308Z,97464.58
2019-02-19T06:01:55.184Z,97465.54
2019-02-19T06:04:26.227Z,97469.70
2019-02-19T06:06:57.268Z,97468.27
2019-02-19T06:09:28.306Z,97474.97
2019-02-19T06:12:00.003Z,97477.86
2019-02-19T06:14:31.986Z,97475.16
2019-02-19T06:17:03.672Z,97477.87
2019-02-19T06:19:35.367Z,97477.53
2019-02-19T06:22:07.096Z,97476.75
2019-02-19T06:24:38.559Z,97479.17
2019-02-19T06:28:22.691Z,97488.75
2019-02-19T06:30:53.835Z,97494.86
2019-02-19T06:33:26.639Z,97492.94
2019-02-19T06:35:57.993Z,97493.24
2019-02-19T06:38:29.133Z,97502.22
2019-02-19T06:41:02.047Z,97508.94
2019-02-19T06:43:46.463Z,97512.12
2019-02-19T06:46:17.714Z,97514.30
2019-02-19T06:49:11.488Z,97512.34
2019-02-19T06:51:42.846Z,97511.63
2019-02-19T06:54:13.585Z,97507.88
2019-02-19T06:56:48.579Z,97513.23
2019-02-19T06:59:19.927Z,97519.00
2019-02-19T07:02:03.081Z,97519.69
2019-02-19T07:04:38.339Z,97522.49
2019-02-19T07:07:09.810Z,97519.58
2019-02-19T07:09:41.118Z,97520.72
2019-02-19T07:12:12.134Z,97522.83
2019-02-19T07:14:43.319Z,97527.95
2019-02-19T07:17:15.905Z,97519.45
2019-02-19T07:19:47.649Z,97518.45
2019-02-19T07:22:18.303Z,97515.70
2019-02-19T07:24:50.117Z,97518.86
2019-02-19T07:27:21.976Z,97518.72
2019-02-19T07:29:53.282Z,97517.84
2019-02-19T07:32:25.069Z,97518.61
2019-02-19T07:34:56.718Z,97523.56
2019-02-19T07:37:28.080Z,97515.70
2019-02-19T07:39:59.199Z,97513.80
2019-02-19T07:42:31.099Z,97509.22
2019-02-19T07:45:02.388Z,97507.40
2019-02-19T07:47:34.058Z,97509.53
2019-02-19T07:50:05.244Z,97502.14
2019-02-19T07:52:36.775Z,97502.16
2019-02-19T07:55:07.795Z,97503.49
2019-02-19T07:57:39.731Z,97504.95
2019-02-19T08:00:12.765Z,97504.44
2019-02-19T08:02:44.085Z,97511.18
2019-02-19T08:05:14.866Z,97505.08
2019-02-19T08:07:46.257Z,97508.03
2019-02-19T08:10:17.718Z,97515.98
2019-02-19T08:12:48.710Z,97506.00
2019-02-19T08:15:20.726Z,97505.86
2019-02-19T08:17:51.810Z,97503.73
2019-02-19T08:20:22.492Z,97509.88
2019-02-19T08:22:54.080Z,97509.13
2019-02-19T08:25:25.458Z,97517.21
2019-02-19T08:27:56.724Z,97516.11
2019-02-19T08:30:28.108Z,97514.59
2019-02-19T08:32:59.276Z,97517.12
2019-02-19T08:35:30.428Z,97511.34
2019-02-19T08:38:02.094Z,97513.08
2019-02-19T08:40:33.740Z,97513.05
2019-02-19T08:43:04.678Z,97511.95
2019-02-19T08:45:36.113Z,97510.14
2019-02-19T08:48:06.844Z,97517.94
2019-02-19T08:50:37.916Z,97513.16
2019-02-19T08:53:09.759Z,97508.81
2019-02-19T08:55:40.707Z,97509.13
2019-02-19T08:58:12.142Z,97515.73
2019-02-19T09:00:44.196Z,97512.75
2019-02-19T09:03:32.342Z,97517.86
2019-02-19T09:06:03.838Z,97521.61
2019-02-19T09:08:35.371Z,97515.42
2019-02-19T09:11:06.493Z,97507.73
2019-02-19T09:13:37.901Z,97512.30
2019-02-19T09:16:08.569Z,97512.73
2019-02-19T09:18:39.645Z,97514.63
2019-02-19T09:21:10.245Z,97514.35
2019-02-19T09:23:42.421Z,97517.11
2019-02-19T09:26:14.302Z,97517.89
2019-02-19T09:28:44.968Z,97517.78
2019-02-19T09:31:16.786Z,97519.95
2019-02-19T09:33:48.213Z,97520.59
2019-02-19T09:36:19.895Z,97515.75
2019-02-19T09:38:51.649Z,97510.70
2019-02-19T09:41:23.561Z,97517.36
2019-02-19T09:43:55.351Z,97520.08
2019-02-19T09:46:26.292Z,97520.95
2019-02-19T09:49:12.967Z,97515.50
2019-02-19T09:51:45.570Z,97517.55
2019-02-19T09:54:16.502Z,97515.42
2019-02-19T09:56:48.167Z,97521.91
2019-02-19T09:59:19.772Z,97523.09
2019-02-19T10:01:51.954Z,97524.27
2019-02-19T10:04:23.596Z,97526.45
2019-02-19T10:06:54.620Z,97517.94
2019-02-19T10:09:25.392Z,97514.98
2019-02-19T10:15:44.899Z,97528.64
2019-02-19T10:18:16.652Z,97526.78
2019-02-19T10:20:47.392Z,97530.65
2019-02-19T10:23:18.963Z,97530.66
2019-02-19T10:25:56.067Z,97528.21
2019-02-19T10:28:27.998Z,97529.55
2019-02-19T10:30:58.656Z,97531.42
2019-02-19T10:33:30.068Z,97528.89
2019-02-19T10:36:01.550Z,97524.40
2019-02-19T10:38:32.928Z,97523.82
2019-02-19T10:41:04.758Z,97521.69
2019-02-19T10:43:36.202Z,97519.47
2019-02-19T10:46:07.846Z,97521.77
2019-02-19T10:48:38.553Z,97519.73
2019-02-19T10:55:09.551Z,97515.49
2019-02-19T10:57:40.858Z,97512.47
2019-02-19T11:00:16.257Z,97516.55
2019-02-19T11:02:47.290Z,97511.02
2019-02-19T11:05:19.333Z,97508.55
2019-02-19T11:07:52.082Z,97507.95
2019-02-19T11:10:37.070Z,97498.61
2019-02-19T11:13:08.050Z,97496.64
2019-02-19T11:15:39.184Z,97491.77
2019-02-19T11:18:10.522Z,97495.80
2019-02-19T11:20:42.290Z,97491.44
2019-02-19T11:23:14.061Z,97484.20
2019-02-19T11:25:45.962Z,97488.48
2019-02-19T11:28:17.349Z,97490.42
2019-02-19T11:30:48.356Z,97478.30
2019-02-19T11:33:19.916Z,97476.66
2019-02-19T11:35:51.319Z,97473.95
2019-02-19T11:38:23.156Z,97476.67
2019-02-19T11:40:53.888Z,97475.01
2019-02-19T11:43:25.618Z,97464.84
2019-02-19T11:45:57.163Z,97459.09
2019-02-19T11:48:36.629Z,97453.12
2019-02-19T11:51:22.490Z,97448.22
2019-02-19T11:53:53.778Z,97450.73
2019-02-19T11:56:25.412Z,97443.30
2019-02-19T11:58:57.057Z,97443.52
2019-02-19T12:01:27.999Z,97438.77
2019-02-19T12:03:59.366Z,97439.55
2019-02-19T12:06:30.505Z,97442.26
2019-02-19T12:09:01.672Z,97438.77
2019-02-19T12:11:33.011Z,97431.14
2019-02-19T12:14:03.755Z,97432.53
2019-02-19T12:16:35.144Z,97425.30
2019-02-19T12:19:06.820Z,97418.03
2019-02-19T12:21:38.910Z,97409.30
2019-02-19T12:24:10.599Z,97413.77
2019-02-19T12:26:42.268Z,97412.45
2019-02-19T12:29:13.908Z,97405.66
2019-02-19T12:31:45.466Z,97394.81
2019-02-19T12:34:17.215Z,97390.28
2019-02-19T12:36:48.230Z,97384.41
2019-02-19T12:39:19.428Z,97387.86
2019-02-19T12:41:50.826Z,97390.92
2019-02-19T12:44:22.195Z,97391.87
2019-02-19T12:46:53.862Z,97400.33
2019-02-19T12:49:25.565Z,97394.95
2019-02-19T12:51:56.920Z,97396.05
2019-02-19T12:54:28.558Z,97390.59
2019-02-19T12:57:43.842Z,97381.31
2019-02-19T13:00:17.009Z,97378.83
2019-02-19T13:02:48.109Z,97366.92
2019-02-19T13:05:19.460Z,97364.63
2019-02-19T13:07:50.826Z,97364.30
2019-02-19T13:10:22.543Z,97362.39
2019-02-19T13:12:54.312Z,97364.48
2019-02-19T13:15:24.985Z,97355.05
2019-02-19T13:17:56.017Z,97357.69
2019-02-19T13:20:27.951Z,97356.74
2019-02-19T13:22:58.682Z,97358.15
2019-02-19T13:25:30.195Z,97351.50
2019-02-19T13:28:01.880Z,97342.97
2019-02-19T13:30:33.164Z,97349.66
2019-02-19T13:33:04.492Z,97350.20
2019-02-19T13:35:35.897Z,97350.53
2019-02-19T13:38:06.557Z,97349.91
2019-02-19T13:40:37.935Z,97350.11
2019-02-19T13:43:08.279Z,97352.59
2019-02-19T13:45:39.322Z,97353.88
2019-02-19T13:48:11.059Z,97357.97
2019-02-19T13:50:42.382Z,97350.55
2019-02-19T13:53:23.569Z,97342.28
2019-02-19T13:55:57.051Z,97340.48
2019-02-19T13:58:28.102Z,97331.42
2019-02-19T14:00:59.167Z,97337.06
2019-02-19T14:03:31.515Z,97339.67
2019-02-19T14:06:02.817Z,97343.11
2019-02-19T14:08:33.993Z,97341.51
2019-02-19T14:11:04.695Z,97339.51
2019-02-19T14:13:37.442Z,97335.66
2019-02-19T14:16:24.952Z,97335.86
2019-02-19T14:19:07.485Z,97335.73
2019-02-19T14:22:11.164Z,97334.63
2019-02-19T14:25:00.326Z,97333.75
2019-02-19T14:27:49.890Z,97334.74
2019-02-19T14:30:30.251Z,97330.50
2019-02-19T14:33:26.990Z,97333.47
2019-02-19T14:36:15.282Z,97326.75
2019-02-19T14:39:14.524Z,97329.53
2019-02-19T14:42:08.818Z,97335.91
2019-02-19T14:45:02.547Z,97330.88
2019-02-19T14:47:47.366Z,97330.38
2019-02-19T14:50:36.895Z,97323.63
2019-02-19T14:53:15.491Z,97321.63
2019-02-19T14:56:05.747Z,97323.29
2019-02-19T14:58:56.346Z,97317.76
2019-02-19T15:01:47.456Z,97317.31
2019-02-19T15:04:46.575Z,97320.52
2019-02-19T15:07:35.468Z,97317.81
2019-02-19T15:13:47.342Z,97325.21
2019-02-19T15:16:36.426Z,97320.95
2019-02-19T15:19:39.054Z,97326.42
2019-02-19T15:22:35.261Z,97327.08
2019-02-19T15:25:27.848Z,97323.59
2019-02-19T15:28:38.312Z,97321.47
2019-02-19T15:31:47.637Z,97318.84
2019-02-19T15:34:51.168Z,97315.95
2019-02-19T15:37:47.260Z,97317.84
2019-02-19T15:40:54.788Z,97316.52
2019-02-19T15:43:51.758Z,97316.41
2019-02-19T15:46:56.878Z,97314.66
2019-02-19T15:50:12.371Z,97315.81
2019-02-19T15:53:01.987Z,97316.96
2019-02-19T15:55:50.155Z,97322.15
2019-02-19T15:58:40.225Z,97317.95
2019-02-19T16:01:30.806Z,97316.91
2019-02-19T16:04:05.723Z,97313.88
2019-02-19T16:07:14.500Z,97310.02
2019-02-19T16:10:07.170Z,97307.99
2019-02-19T16:13:09.175Z,97312.91
2019-02-19T16:15:58.752Z,97311.97
2019-02-19T16:18:48.287Z,97306.38
2019-02-19T16:21:31.448Z,97301.98
2019-02-19T16:24:09.651Z,97306.72
2019-02-19T16:26:51.383Z,97304.12
2019-02-19T16:29:41.920Z,97308.86
2019-02-19T16:32:33.338Z,97317.81
2019-02-19T16:35:41.421Z,97304.80
2019-02-19T16:38:36.921Z,97303.52
2019-02-19T16:41:32.824Z,97302.09
2019-02-19T16:44:12.984Z,97305.01
2019-02-19T16:46:51.205Z,97313.27
2019-02-19T16:49:44.592Z,97314.58
2019-02-19T16:53:11.975Z,97315.95
2019-02-19T16:56:00.522Z,97322.37
2019-02-19T16:59:07.259Z,97330.52
2019-02-19T17:02:07.347Z,97336.88
2019-02-19T17:04:55.532Z,97339.25
2019-02-19T17:07:47.278Z,97341.36
2019-02-19T17:10:26.955Z,97338.80
2019-02-19T17:13:34.560Z,97343.89
2019-02-19T17:16:15.067Z,97341.30
2019-02-19T17:18:57.113Z,97351.98
2019-02-19T17:21:52.888Z,97352.99
2019-02-19T17:24:44.656Z,97358.32
2019-02-19T17:27:37.419Z,97361.50
2019-02-19T17:30:33.496Z,97358.17
2019-02-19T17:33:20.921Z,97367.89
2019-02-19T17:36:10.984Z,97373.05
2019-02-19T17:38:56.159Z,97372.20
2019-02-19T17:41:47.498Z,97365.49
2019-02-19T17:44:37.458Z,97367.03
2019-02-19T17:47:36.584Z,97369.97
2019-02-19T17:50:27.613Z,97373.89
2019-02-19T17:53:06.783Z,97378.61
2019-02-19T17:55:49.234Z,97380.41
2019-02-19T17:58:42.470Z,97378.77
2019-02-19T18:01:28.600Z,97383.84
2019-02-19T18:04:17.557Z,97386.98
2019-02-19T18:07:16.624Z,97390.59
2019-02-19T18:10:21.067Z,97389.09
2019-02-19T18:13:26.439Z,97391.90
2019-02-19T18:16:28.765Z,97396.83
2019-02-19T18:18:59.380Z,97396.95
2019-02-19T18:21:30.969Z,97398.30
2019-02-19T18:24:04.562Z,97395.20
2019-02-19T18:26:36.673Z,97396.84
2019-02-19T18:29:07.995Z,97399.72
2019-02-19T18:31:39.877Z,97404.07
2019-02-19T18:34:11.400Z,97405.37
2019-02-19T18:36:49.589Z,97403.48
2019-02-19T18:39:21.051Z,97417.18
2019-02-19T18:41:53.028Z,97414.44
2019-02-19T18:44:34.564Z,97414.64
2019-02-19T18:47:07.075Z,97417.55
2019-02-19T18:49:38.474Z,97416.58
2019-02-19T18:52:09.988Z,97417.47
2019-02-19T18:54:41.022Z,97416.78
2019-02-19T18:57:34.116Z,97421.34
2019-02-19T19:00:04.932Z,97421.75
2019-02-19T19:02:43.324Z,97421.03
2019-02-19T19:05:14.001Z,97424.63
2019-02-19T19:08:06.016Z,97434.47
2019-02-19T19:10:36.942Z,97440.21
2019-02-19T19:13:09.223Z,97435.81
2019-02-19T19:15:40.404Z,97434.78
2019-02-19T19:18:15.296Z,97439.42
2019-02-19T19:20:46.510Z,97441.47
2019-02-19T19:23:19.399Z,97441.52
2019-02-19T19:25:51.074Z,97448.09
2019-02-19T19:28:29.645Z,97446.95
2019-02-19T19:31:01.453Z,97449.64
2019-02-19T19:33:38.555Z,97449.20
2019-02-19T19:36:16.877Z,97452.12
2019-02-19T19:38:55.967Z,97448.05
2019-02-19T19:41:38.433Z,97449.53
2019-02-19T19:44:10.524Z,97448.55
2019-02-19T19:46:50.014Z,97449.08
2019-02-19T19:49:22.243Z,97451.78
2019-02-19T19:51:52.929Z,97459.09
2019-02-19T19:54:25.281Z,97454.66
2019-02-19T19:56:57.005Z,97454.72
2019-02-19T19:59:28.606Z,97459.66
2019-02-19T20:02:01.662Z,97455.52
2019-02-19T20:04:33.179Z,97461.58
2019-02-19T20:07:04.486Z,97462.09
2019-02-19T20:09:46.978Z,97464.23
2019-02-19T20:12:30.504Z,97464.41
2019-02-19T20:15:27.971Z,97467.46
2019-02-19T20:18:11.972Z,97472.05
2019-02-19T20:20:43.646Z,97477.63
2019-02-19T20:23:21.148Z,97474.91
2019-02-19T20:25:57.271Z,97476.97
2019-02-19T20:28:28.873Z,97479.28
2019-02-19T20:31:04.185Z,97481.40
2019-02-19T20:33:45.308Z,97484.52
2019-02-19T20:36:27.979Z,97486.97
2019-02-19T20:39:00.384Z,97487.58
2019-02-19T20:41:36.135Z,97488.66
2019-02-19T20:44:06.769Z,97491.02
2019-02-19T20:46:43.874Z,97497.59
2019-02-19T20:49:15.463Z,97495.97
2019-02-19T20:51:52.245Z,97499.05
2019-02-19T20:54:23.744Z,97496.14
2019-02-19T20:56:59.962Z,97490.92
2019-02-19T20:59:54.712Z,97492.56
2019-02-19T21:02:27.647Z,97494.77
2019-02-19T21:05:13.087Z,97497.59
2019-02-19T21:07:48.025Z,97499.25
2019-02-19T21:10:19.004Z,97501.61
2019-02-19T21:12:57.078Z,97498.29
2019-02-19T21:15:33.591Z,97497.53
2019-02-19T21:18:04.295Z,97503.54
2019-02-19T21:20:36.128Z,97500.40
2019-02-19T21:23:13.759Z,97503.53
2019-02-19T21:25:51.264Z,97508.37
2019-02-19T21:28:23.764Z,97503.13
2019-02-19T21:31:05.455Z,97500.53
2019-02-19T21:33:38.560Z,97503.66
2019-02-19T21:36:10.531Z,97503.23
2019-02-19T21:38:42.356Z,97495.70
2019-02-19T21:41:18.436Z,97502.73
2019-02-19T21:43:49.749Z,97497.27
2019-02-19T21:46:25.567Z,97502.64
2019-02-19T21:49:04.378Z,97496.34
2019-02-19T21:51:35.576Z,97502.52
2019-02-19T21:54:07.722Z,97507.14
2019-02-19T21:56:39.368Z,97502.34
2019-02-19T21:59:11.171Z,97504.57
2019-02-19T22:01:55.819Z,97501.86
2019-02-19T22:04:32.796Z,97508.49
2019-02-19T22:07:16.484Z,97504.82
2019-02-19T22:09:55.061Z,97507.97
2019-02-19T22:12:27.940Z,97507.02
2019-02-19T22:15:00.596Z,97508.86
2019-02-19T22:17:40.239Z,97512.09
2019-02-19T22:20:24.823Z,97516.46
2019-02-19T22:23:11.678Z,97515.98
2019-02-19T22:25:43.971Z,97515.98
2019-02-19T22:28:17.631Z,97511.72
2019-02-19T22:30:53.674Z,97516.99
2019-02-19T22:33:25.647Z,97518.52
2019-02-19T22:35:58.894Z,97513.83
2019-02-19T22:38:30.767Z,97517.06
2019-02-19T22:41:07.187Z,97523.58
2019-02-19T22:43:46.307Z,97521.58
2019-02-19T22:46:31.121Z,97521.87
2019-02-19T22:49:04.543Z,97520.40
2019-02-19T22:51:36.986Z,97523.45
2019-02-19T22:54:33.855Z,97526.72
2019-02-19T22:57:09.443Z,97524.22
2019-02-19T22:59:47.677Z,97525.48
2019-02-19T23:02:30.651Z,97521.45
2019-02-19T23:05:03.248Z,97523.47
2019-02-19T23:07:34.370Z,97523.16
2019-02-19T23:10:08.262Z,97526.71
2019-02-19T23:12:39.354Z,97529.31
2019-02-19T23:15:11.397Z,97529.00
2019-02-19T23:17:52.174Z,97535.95
2019-02-19T23:20:28.839Z,97535.31
2019-02-19T23:23:00.618Z,97535.33
2019-02-19T23:25:38.385Z,97536.73
2019-02-19T23:28:10.835Z,97537.16
2019-02-19T23:30:42.340Z,97532.92
2019-02-19T23:33:23.481Z,97535.05
2019-02-19T23:35:59.700Z,97539.75
2019-02-19T23:38:31.563Z,97545.64
2019-02-19T23:41:08.481Z,97549.17
2019-02-19T23:43:40.912Z,97554.13
2019-02-19T23:46:15.723Z,97555.71
2019-02-19T23:48:48.048Z,97558.98
2019-02-19T23:51:25.761Z,97553.23
2019-02-19T23:54:03.728Z,97557.50
2019-02-19T23:56:37.773Z,97554.59
2019-02-19T23:59:21.875Z,97553.61
